createdAt,value
2018-12-25T00:01:09.264Z,12.60
2018-12-25T00:03:35.093Z,12.15
2018-12-25T00:06:03.972Z,12.47
2018-12-25T00:08:29.817Z,9.95
2018-12-25T00:10:58.460Z,13.67
2018-12-25T00:13:24.290Z,10.48
2018-12-25T00:15:53.022Z,9.80
2018-12-25T00:18:18.880Z,13.18
2018-12-25T00:20:47.610Z,11.43
2018-12-25T00:23:13.466Z,14.15
2018-12-25T00:25:42.311Z,13.07
2018-12-25T00:28:08.408Z,12.10
2018-12-25T00:30:34.240Z,12.40
2018-12-25T00:33:00.069Z,12.27
2018-12-25T00:35:26.176Z,8.93
2018-12-25T00:37:52.062Z,10.53
2018-12-25T00:40:18.054Z,12.33
2018-12-25T00:42:47.158Z,12.20
2018-12-25T00:45:13.026Z,11.43
2018-12-25T00:47:42.025Z,7.20
2018-12-25T00:50:07.849Z,10.98
2018-12-25T00:52:36.768Z,9.53
2018-12-25T00:55:03.123Z,11.08
2018-12-25T00:57:32.735Z,7.40
2018-12-25T00:59:58.862Z,9.80
2018-12-25T01:02:27.865Z,9.55
2018-12-25T01:04:53.962Z,8.05
2018-12-25T01:07:19.824Z,14.93
2018-12-25T01:09:45.630Z,10.37
2018-12-25T01:12:11.482Z,19.00
2018-12-25T01:14:37.649Z,10.30
2018-12-25T01:17:03.542Z,17.35
2018-12-25T01:19:34.224Z,13.23
2018-12-25T01:22:00.376Z,10.75
2018-12-25T01:24:29.254Z,11.75
2018-12-25T01:26:55.237Z,15.15
2018-12-25T01:29:24.139Z,12.37
2018-12-25T01:31:50.106Z,17.60
2018-12-25T01:34:16.278Z,14.40
2018-12-25T01:36:42.103Z,17.73
2018-12-25T01:39:12.917Z,14.27
2018-12-25T01:41:38.870Z,8.88
2018-12-25T01:44:05.069Z,14.78
2018-12-25T01:46:30.894Z,11.40
2018-12-25T01:48:56.737Z,16.27
2018-12-25T01:51:22.873Z,13.77
2018-12-25T01:53:49.067Z,18.17
2018-12-25T01:56:17.771Z,16.02
2018-12-25T01:58:43.607Z,15.85
2018-12-25T02:01:14.228Z,13.10
2018-12-25T02:03:40.083Z,21.52
2018-12-25T02:06:08.962Z,21.23
2018-12-25T02:08:34.809Z,24.63
2018-12-25T02:11:03.463Z,32.33
2018-12-25T02:13:29.328Z,24.35
2018-12-25T02:15:57.900Z,23.07
2018-12-25T02:18:23.777Z,21.30
2018-12-25T02:20:49.864Z,19.10
2018-12-25T02:23:15.725Z,23.73
2018-12-25T02:25:41.549Z,16.90
2018-12-25T02:28:10.601Z,21.23
2018-12-25T02:30:36.468Z,21.93
2018-12-25T02:33:05.495Z,16.90
2018-12-25T02:35:31.381Z,33.33
2018-12-25T02:37:57.349Z,17.60
2018-12-25T02:40:23.498Z,13.48
2018-12-25T02:42:52.422Z,13.88
2018-12-25T02:45:18.231Z,15.05
2018-12-25T02:47:48.597Z,11.57
2018-12-25T02:50:14.415Z,11.95
2018-12-25T02:52:43.344Z,11.63
2018-12-25T02:55:09.507Z,12.78
2018-12-25T02:57:35.363Z,15.58
2018-12-25T03:00:01.563Z,13.30
2018-12-25T03:02:27.466Z,11.30
2018-12-25T03:04:53.629Z,11.90
2018-12-25T03:07:19.450Z,11.85
2018-12-25T03:09:49.469Z,16.93
2018-12-25T03:12:15.299Z,18.75
2018-12-25T03:14:44.663Z,11.40
2018-12-25T03:17:10.543Z,13.80
2018-12-25T03:19:37.658Z,12.97
2018-12-25T03:22:03.808Z,15.50
2018-12-25T03:24:33.142Z,17.62
2018-12-25T03:26:59.026Z,10.95
2018-12-25T03:29:27.637Z,14.63
2018-12-25T03:31:53.454Z,18.57
2018-12-25T03:34:19.301Z,15.43
2018-12-25T03:36:45.436Z,22.37
2018-12-25T03:39:11.269Z,18.87
2018-12-25T03:41:40.220Z,12.10
2018-12-25T03:44:06.078Z,15.80
2018-12-25T03:46:34.724Z,10.13
2018-12-25T03:49:00.614Z,15.15
2018-12-25T03:51:29.337Z,10.60
2018-12-25T03:53:55.435Z,16.57
2018-12-25T03:56:24.434Z,18.10
2018-12-25T03:58:50.289Z,15.35
2018-12-25T04:01:19.163Z,18.07
2018-12-25T04:03:45.024Z,17.27
2018-12-25T04:06:13.853Z,15.60
2018-12-25T04:08:39.658Z,17.50
2018-12-25T04:11:05.504Z,15.07
2018-12-25T04:13:31.377Z,14.67
2018-12-25T04:15:57.511Z,13.50
2018-12-25T04:18:26.181Z,12.95
2018-12-25T04:20:52.021Z,14.63
2018-12-25T04:23:18.877Z,13.50
2018-12-25T04:25:44.699Z,10.72
2018-12-25T04:28:14.976Z,11.10
2018-12-25T04:30:40.829Z,11.95
2018-12-25T04:33:09.559Z,13.13
2018-12-25T04:35:35.723Z,10.38
2018-12-25T04:38:02.819Z,12.15
2018-12-25T04:40:28.640Z,10.95
2018-12-25T04:42:57.659Z,12.43
2018-12-25T04:45:23.806Z,11.40
2018-12-25T04:47:49.890Z,13.53
2018-12-25T04:50:15.774Z,10.68
2018-12-25T04:52:41.890Z,10.10
2018-12-25T04:55:10.541Z,10.35
2018-12-25T04:57:36.353Z,9.50
2018-12-25T05:00:05.455Z,14.23
2018-12-25T05:02:31.631Z,11.18
2018-12-25T05:05:00.240Z,10.90
2018-12-25T05:07:25.983Z,13.25
2018-12-25T05:09:54.565Z,16.83
2018-12-25T05:12:20.404Z,13.90
2018-12-25T05:14:49.863Z,12.90
2018-12-25T05:17:15.665Z,10.63
2018-12-25T05:19:42.874Z,10.03
2018-12-25T05:22:09.019Z,10.23
2018-12-25T05:24:34.854Z,10.78
2018-12-25T05:27:00.669Z,14.17
2018-12-25T05:29:26.524Z,11.47
2018-12-25T05:31:57.255Z,13.57
2018-12-25T05:34:23.084Z,17.30
2018-12-25T05:37:02.013Z,20.17
2018-12-25T05:39:23.736Z,18.17
2018-12-25T05:41:49.544Z,29.57
2018-12-25T05:44:15.712Z,19.27
2018-12-25T05:46:41.798Z,14.95
2018-12-25T05:49:07.663Z,15.78
2018-12-25T05:51:33.476Z,12.57
2018-12-25T05:53:59.304Z,11.97
2018-12-25T05:56:28.511Z,13.73
2018-12-25T05:58:54.672Z,13.30
2018-12-25T06:01:20.456Z,14.93
2018-12-25T06:03:46.285Z,11.80
2018-12-25T06:06:12.146Z,13.27
2018-12-25T06:08:42.710Z,12.90
2018-12-25T06:11:08.720Z,10.25
2018-12-25T06:13:37.318Z,12.07
2018-12-25T06:16:03.160Z,10.25
2018-12-25T06:18:31.763Z,12.57
2018-12-25T06:20:57.653Z,11.63
2018-12-25T06:23:26.205Z,11.37
2018-12-25T06:25:52.042Z,14.65
2018-12-25T06:28:20.671Z,16.03
2018-12-25T06:30:46.699Z,9.70
2018-12-25T06:33:15.963Z,15.20
2018-12-25T06:35:42.084Z,14.55
2018-12-25T06:38:07.911Z,24.00
2018-12-25T06:40:34.034Z,17.70
2018-12-25T06:43:00.131Z,18.98
2018-12-25T06:45:25.978Z,20.35
2018-12-25T06:47:51.792Z,21.80
2018-12-25T06:50:20.586Z,17.53
2018-12-25T06:52:46.711Z,26.95
2018-12-25T06:55:14.688Z,36.60
2018-12-25T06:57:40.800Z,21.02
2018-12-25T07:00:11.554Z,23.47
2018-12-25T07:02:37.468Z,13.43
2018-12-25T07:05:06.358Z,17.30
2018-12-25T07:07:32.478Z,13.43
2018-12-25T07:10:01.468Z,15.72
2018-12-25T07:12:27.304Z,21.60
2018-12-25T07:14:53.141Z,13.17
2018-12-25T07:17:19.233Z,12.57
2018-12-25T07:19:45.324Z,15.18
2018-12-25T07:22:16.720Z,9.68
2018-12-25T07:24:42.791Z,13.75
2018-12-25T07:27:08.605Z,16.27
2018-12-25T07:29:34.434Z,11.20
2018-12-25T07:32:00.250Z,10.90
2018-12-25T07:34:26.102Z,11.23
2018-12-25T07:36:54.953Z,11.80
2018-12-25T07:39:20.806Z,11.60
2018-12-25T07:41:51.160Z,14.10
2018-12-25T07:44:17.020Z,13.98
2018-12-25T07:46:43.898Z,26.97
2018-12-25T07:49:09.827Z,16.60
2018-12-25T07:51:35.944Z,16.17
2018-12-25T07:54:01.812Z,11.20
2018-12-25T07:56:27.933Z,18.23
2018-12-25T07:58:56.054Z,13.48
2018-12-25T08:01:21.901Z,18.95
2018-12-25T08:03:52.851Z,41.10
2018-12-25T08:06:18.696Z,97.60
2018-12-25T08:08:45.481Z,23.10
2018-12-25T08:11:11.347Z,17.80
2018-12-25T08:13:41.592Z,16.87
2018-12-25T08:16:07.699Z,26.00
2018-12-25T08:18:35.085Z,17.02
2018-12-25T08:21:00.919Z,27.27
2018-12-25T08:23:29.619Z,28.80
2018-12-25T08:25:55.471Z,22.67
2018-12-25T08:28:21.295Z,24.17
2018-12-25T08:30:47.230Z,22.07
2018-12-25T08:33:13.068Z,28.80
2018-12-25T08:35:41.342Z,20.00
2018-12-25T08:38:07.435Z,25.43
2018-12-25T08:40:36.309Z,23.62
2018-12-25T08:43:02.184Z,21.65
2018-12-25T08:45:31.167Z,26.87
2018-12-25T08:47:57.008Z,24.57
2018-12-25T08:50:26.229Z,16.10
2018-12-25T08:52:52.078Z,17.98
2018-12-25T08:55:21.026Z,18.33
2018-12-25T08:57:46.878Z,27.67
2018-12-25T09:00:15.496Z,30.90
2018-12-25T09:02:41.342Z,19.37
2018-12-25T09:05:07.154Z,20.93
2018-12-25T09:07:33.233Z,17.37
2018-12-25T09:09:59.341Z,16.67
2018-12-25T09:12:28.221Z,13.25
2018-12-25T09:14:54.052Z,13.15
2018-12-25T09:17:22.919Z,15.27
2018-12-25T09:19:48.822Z,16.80
2018-12-25T09:22:16.001Z,22.23
2018-12-25T09:24:41.869Z,14.40
2018-12-25T09:27:11.026Z,15.03
2018-12-25T09:29:36.886Z,11.88
2018-12-25T09:32:07.323Z,6.60
2018-12-25T09:34:33.492Z,7.80
2018-12-25T09:37:02.459Z,8.98
2018-12-25T09:39:28.331Z,8.45
2018-12-25T09:41:54.240Z,11.37
2018-12-25T09:44:20.137Z,9.40
2018-12-25T09:46:46.007Z,11.10
2018-12-25T09:49:11.823Z,9.43
2018-12-25T09:51:37.782Z,12.00
2018-12-25T09:54:06.598Z,11.00
2018-12-25T09:56:32.755Z,15.15
2018-12-25T09:59:01.593Z,9.75
2018-12-25T10:01:27.434Z,11.83
2018-12-25T10:03:58.051Z,10.83
2018-12-25T10:06:23.953Z,7.62
2018-12-25T10:08:52.572Z,9.13
2018-12-25T10:11:18.700Z,13.50
2018-12-25T10:13:47.557Z,99.00
2018-12-25T10:16:13.721Z,11.50
2018-12-25T10:18:39.871Z,10.72
2018-12-25T10:21:05.708Z,8.70
2018-12-25T10:23:31.553Z,8.67
2018-12-25T10:25:57.693Z,10.00
2018-12-25T10:28:23.501Z,11.35
2018-12-25T10:30:52.644Z,7.50
2018-12-25T10:33:18.460Z,10.53
2018-12-25T10:35:47.053Z,9.47
2018-12-25T10:38:12.875Z,9.45
2018-12-25T10:40:43.410Z,9.93
2018-12-25T10:43:09.247Z,10.23
2018-12-25T10:45:38.165Z,11.33
2018-12-25T10:48:04.004Z,9.50
2018-12-25T10:50:32.833Z,9.37
2018-12-25T10:52:58.698Z,11.60
2018-12-25T10:55:26.296Z,10.90
2018-12-25T10:57:52.265Z,12.90
2018-12-25T11:00:18.418Z,11.40
2018-12-25T11:02:44.563Z,12.40
2018-12-25T11:05:10.371Z,11.43
2018-12-25T11:07:39.439Z,12.53
2018-12-25T11:10:07.255Z,9.23
2018-12-25T11:12:33.065Z,10.93
2018-12-25T11:14:58.905Z,13.60
2018-12-25T11:17:28.519Z,10.17
2018-12-25T11:19:55.706Z,10.48
2018-12-25T11:22:23.563Z,11.95
2018-12-25T11:24:49.648Z,12.90
2018-12-25T11:27:18.832Z,13.28
2018-12-25T11:29:44.634Z,26.80
2018-12-25T11:32:10.486Z,13.13
2018-12-25T11:34:36.328Z,19.30
2018-12-25T11:37:02.226Z,15.30
2018-12-25T11:39:28.023Z,14.17
2018-12-25T11:41:54.132Z,11.80
2018-12-25T11:44:23.500Z,20.37
2018-12-25T11:46:49.637Z,20.15
2018-12-25T11:49:18.394Z,13.40
2018-12-25T11:51:44.280Z,14.68
2018-12-25T11:54:12.853Z,13.50
2018-12-25T11:56:38.693Z,13.18
2018-12-25T11:59:07.286Z,14.93
2018-12-25T12:01:33.132Z,12.60
2018-12-25T12:04:01.553Z,13.97
2018-12-25T12:06:28.639Z,13.93
2018-12-25T12:08:54.506Z,9.55
2018-12-25T12:11:20.350Z,12.03
2018-12-25T12:13:46.421Z,19.10
2018-12-25T12:16:13.424Z,11.83
2018-12-25T12:18:39.295Z,11.15
2018-12-25T12:21:09.903Z,12.07
2018-12-25T12:23:35.760Z,11.63
2018-12-25T12:26:04.727Z,8.30
2018-12-25T12:28:30.569Z,14.05
2018-12-25T12:30:58.111Z,12.57
2018-12-25T12:33:24.167Z,10.35
2018-12-25T12:35:52.799Z,10.20
2018-12-25T12:38:18.616Z,11.70
2018-12-25T12:40:47.447Z,9.30
2018-12-25T12:43:13.376Z,9.93
2018-12-25T12:45:39.213Z,9.47
2018-12-25T12:48:05.374Z,9.53
2018-12-25T12:50:31.212Z,10.58
2018-12-25T12:53:00.084Z,11.40
2018-12-25T12:55:25.912Z,13.28
2018-12-25T12:57:54.541Z,11.07
2018-12-25T13:00:20.408Z,11.05
2018-12-25T13:02:49.285Z,13.33
2018-12-25T13:05:15.144Z,13.72
2018-12-25T13:07:44.107Z,13.80
2018-12-25T13:10:10.231Z,16.82
2018-12-25T13:12:37.242Z,12.30
2018-12-25T13:15:04.835Z,13.38
2018-12-25T13:17:32.244Z,11.65
2018-12-25T13:19:58.097Z,15.28
2018-12-25T13:22:23.918Z,13.80
2018-12-25T13:24:49.967Z,13.53
2018-12-25T13:27:16.076Z,14.18
2018-12-25T13:29:45.234Z,14.28
2018-12-25T13:32:11.060Z,14.35
2018-12-25T13:34:39.655Z,21.40
2018-12-25T13:37:05.800Z,14.75
2018-12-25T13:39:34.671Z,17.02
2018-12-25T13:42:00.489Z,16.57
2018-12-25T13:44:29.427Z,32.90
2018-12-25T13:46:55.393Z,16.05
2018-12-25T13:49:22.433Z,20.08
2018-12-25T13:51:48.312Z,20.82
2018-12-25T13:54:17.879Z,22.53
2018-12-25T13:56:43.736Z,19.48
2018-12-25T13:59:09.543Z,17.47
2018-12-25T14:01:35.350Z,17.90
2018-12-25T14:04:01.606Z,18.47
2018-12-25T14:06:30.472Z,19.80
2018-12-25T14:08:56.628Z,18.05
2018-12-25T14:11:24.151Z,15.43
2018-12-25T14:13:49.999Z,17.67
2018-12-25T14:16:20.712Z,19.97
2018-12-25T14:18:46.570Z,17.20
2018-12-25T14:21:15.781Z,20.53
2018-12-25T14:23:41.882Z,17.20
2018-12-25T14:26:07.720Z,16.02
2018-12-25T14:28:33.854Z,17.07
2018-12-25T14:31:04.907Z,15.53
2018-12-25T14:33:30.995Z,15.72
2018-12-25T14:35:56.837Z,14.55
2018-12-25T14:38:22.665Z,15.87
2018-12-25T14:40:48.545Z,12.27
2018-12-25T14:43:14.362Z,14.97
2018-12-25T14:45:40.211Z,15.87
2018-12-25T14:48:09.055Z,17.37
2018-12-25T14:50:35.180Z,16.25
2018-12-25T14:53:03.974Z,15.70
2018-12-25T14:55:29.822Z,16.85
2018-12-25T14:57:59.200Z,13.40
2018-12-25T15:00:25.084Z,15.50
2018-12-25T15:02:54.622Z,15.13
2018-12-25T15:05:20.481Z,18.25
2018-12-25T15:07:49.063Z,16.70
2018-12-25T15:10:14.941Z,16.62
2018-12-25T15:12:40.744Z,19.40
2018-12-25T15:15:06.743Z,15.83
2018-12-25T15:17:32.601Z,16.50
2018-12-25T15:19:59.597Z,16.27
2018-12-25T15:22:25.769Z,22.82
2018-12-25T15:24:55.053Z,23.98
2018-12-25T15:27:21.229Z,21.35
2018-12-25T15:29:49.841Z,18.60
2018-12-25T15:32:15.655Z,16.00
2018-12-25T15:34:44.886Z,12.73
2018-12-25T15:37:11.007Z,19.32
2018-12-25T15:39:39.853Z,17.40
2018-12-25T15:42:07.020Z,22.80
2018-12-25T15:44:32.882Z,21.48
2018-12-25T15:46:58.983Z,17.57
2018-12-25T15:49:25.075Z,22.98
2018-12-25T15:51:51.173Z,18.23
2018-12-25T15:54:16.999Z,17.77
2018-12-25T15:56:45.843Z,17.10
2018-12-25T15:59:11.979Z,20.85
2018-12-25T16:01:41.222Z,21.60
2018-12-25T16:04:07.327Z,26.93
2018-12-25T16:06:34.929Z,24.40
2018-12-25T16:09:00.758Z,19.75
2018-12-25T16:11:29.605Z,19.47
2018-12-25T16:13:55.470Z,20.97
2018-12-25T16:16:24.150Z,22.00
2018-12-25T16:18:49.976Z,19.40
2018-12-25T16:21:20.792Z,28.70
2018-12-25T16:23:46.642Z,15.63
2018-12-25T16:26:12.471Z,20.00
2018-12-25T16:28:38.305Z,16.90
2018-12-25T16:31:04.150Z,22.83
2018-12-25T16:33:33.023Z,25.13
2018-12-25T16:35:59.072Z,20.05
2018-12-25T16:38:24.938Z,27.62
2018-12-25T16:40:50.801Z,21.93
2018-12-25T16:43:20.062Z,21.17
2018-12-25T16:45:45.895Z,22.60
2018-12-25T16:48:14.756Z,23.63
2018-12-25T16:50:40.583Z,19.98
2018-12-25T16:53:11.203Z,24.77
2018-12-25T16:55:37.026Z,28.15
2018-12-25T16:58:05.643Z,20.53
2018-12-25T17:00:32.242Z,30.05
2018-12-25T17:02:58.425Z,30.25
2018-12-25T17:05:24.519Z,28.27
2018-12-25T17:07:50.609Z,23.67
2018-12-25T17:10:36.606Z,31.00
2018-12-25T17:13:02.413Z,25.17
2018-12-25T17:15:28.256Z,27.67
2018-12-25T17:17:54.360Z,24.50
2018-12-25T17:20:20.217Z,24.50
2018-12-25T17:22:46.349Z,25.10
2018-12-25T17:25:12.248Z,22.95
2018-12-25T17:27:38.385Z,23.20
2018-12-25T17:30:06.755Z,26.27
2018-12-25T17:32:34.163Z,27.32
2018-12-25T17:34:59.999Z,24.02
2018-12-25T17:37:25.856Z,23.90
2018-12-25T17:39:51.694Z,28.13
2018-12-25T17:42:17.806Z,29.27
2018-12-25T17:44:43.641Z,21.33
2018-12-25T17:47:09.484Z,25.27
2018-12-25T17:49:35.610Z,24.03
2018-12-25T17:52:08.701Z,31.45
2018-12-25T17:54:34.923Z,24.32
2018-12-25T17:57:00.744Z,34.03
2018-12-25T17:59:26.615Z,29.87
2018-12-25T18:01:52.642Z,32.50
2018-12-25T18:04:18.807Z,25.92
2018-12-25T18:06:44.954Z,25.02
2018-12-25T18:09:10.871Z,40.52
2018-12-25T18:11:36.686Z,26.57
2018-12-25T18:14:02.695Z,29.90
2018-12-25T18:16:30.081Z,24.98
2018-12-25T18:18:56.084Z,31.48
2018-12-25T18:21:22.054Z,26.10
2018-12-25T18:23:48.110Z,34.27
2018-12-25T18:26:14.286Z,27.67
2018-12-25T18:28:43.278Z,43.20
2018-12-25T18:31:09.116Z,33.45
2018-12-25T18:33:37.722Z,28.17
2018-12-25T18:36:03.566Z,39.42
2018-12-25T18:38:32.418Z,42.77
2018-12-25T18:40:58.687Z,37.28
2018-12-25T18:43:27.565Z,33.60
2018-12-25T18:45:56.277Z,23.95
2018-12-25T18:48:22.219Z,28.47
2018-12-25T18:50:48.109Z,28.87
2018-12-25T18:53:13.981Z,33.90
2018-12-25T18:55:40.349Z,30.03
2018-12-25T18:58:06.541Z,30.30
2018-12-25T19:00:32.341Z,33.67
2018-12-25T19:02:58.481Z,29.07
2018-12-25T19:05:27.516Z,30.60
2018-12-25T19:07:53.337Z,28.00
2018-12-25T19:10:22.120Z,27.23
2018-12-25T19:12:47.943Z,25.92
2018-12-25T19:15:21.130Z,39.63
2018-12-25T19:17:47.545Z,33.98
2018-12-25T19:20:13.396Z,46.13
2018-12-25T19:22:39.535Z,30.23
2018-12-25T19:25:05.665Z,36.90
2018-12-25T19:27:31.507Z,31.25
2018-12-25T19:29:57.310Z,38.23
2018-12-25T19:32:23.206Z,31.57
2018-12-25T19:34:49.307Z,40.03
2018-12-25T19:37:18.189Z,33.67
2018-12-25T19:39:44.286Z,44.33
2018-12-25T19:42:13.180Z,33.33
2018-12-25T19:44:39.270Z,33.08
2018-12-25T19:47:06.518Z,34.67
2018-12-25T19:49:32.343Z,33.08
2018-12-25T19:52:02.846Z,28.00
2018-12-25T19:54:28.729Z,39.33
2018-12-25T19:56:58.209Z,35.00
2018-12-25T19:59:24.025Z,39.70
2018-12-25T20:01:52.699Z,31.27
2018-12-25T20:04:22.637Z,28.27
2018-12-25T20:07:12.003Z,34.38
2018-12-25T20:09:45.016Z,35.60
2018-12-25T20:12:32.293Z,32.67
2018-12-25T20:15:18.466Z,32.48
2018-12-25T20:18:20.510Z,30.62
2018-12-25T20:21:05.531Z,40.10
2018-12-25T20:23:55.112Z,39.38
2018-12-25T20:26:53.709Z,41.73
2018-12-25T20:29:52.914Z,43.87
2018-12-25T20:32:25.352Z,39.30
2018-12-25T20:35:00.965Z,38.40
2018-12-25T20:37:47.658Z,70.62
2018-12-25T20:40:26.215Z,73.42
2018-12-25T20:43:01.688Z,67.92
2018-12-25T20:45:34.374Z,38.88
2018-12-25T20:48:09.848Z,32.80
2018-12-25T20:51:02.560Z,34.50
2018-12-25T20:53:47.813Z,31.73
2018-12-25T20:56:32.861Z,36.55
2018-12-25T20:59:26.298Z,36.88
2018-12-25T21:02:04.286Z,34.18
2018-12-25T21:04:51.684Z,31.42
2018-12-25T21:07:34.549Z,33.83
2018-12-25T21:10:27.554Z,34.65
2018-12-25T21:13:03.263Z,28.55
2018-12-25T21:15:35.957Z,50.95
2018-12-25T21:18:22.057Z,29.82
2018-12-25T21:20:57.831Z,30.88
2018-12-25T21:24:01.528Z,29.57
2018-12-25T21:27:04.998Z,35.43
2018-12-25T21:29:31.253Z,32.03
2018-12-25T21:31:57.060Z,24.80
2018-12-25T21:34:23.326Z,27.00
2018-12-25T21:36:49.666Z,26.87
2018-12-25T21:39:15.848Z,28.55
2018-12-25T21:41:41.976Z,37.48
2018-12-25T21:44:08.000Z,33.98
2018-12-25T21:46:34.342Z,25.68
2018-12-25T21:49:00.229Z,34.75
2018-12-25T21:51:26.253Z,29.45
2018-12-25T21:53:52.301Z,27.60
2018-12-25T21:56:25.459Z,34.73
2018-12-25T21:58:52.322Z,27.13
2018-12-25T22:01:18.404Z,36.03
2018-12-25T22:03:44.663Z,27.55
2018-12-25T22:06:10.800Z,25.17
2018-12-25T22:08:36.629Z,27.02
2018-12-25T22:11:02.749Z,25.37
2018-12-25T22:13:28.602Z,26.77
2018-12-25T22:15:54.459Z,32.23
2018-12-25T22:18:20.314Z,29.47
2018-12-25T22:20:46.146Z,24.60
2018-12-25T22:23:11.980Z,34.63
2018-12-25T22:25:42.433Z,31.93
2018-12-25T22:28:08.329Z,27.15
2018-12-25T22:30:34.166Z,25.57
2018-12-25T22:33:00.343Z,29.43
2018-12-25T22:35:26.401Z,21.25
2018-12-25T22:37:52.517Z,33.88
2018-12-25T22:40:18.339Z,23.10
2018-12-25T22:42:44.177Z,29.80
2018-12-25T22:45:10.296Z,33.63
2018-12-25T22:47:38.166Z,21.52
2018-12-25T22:50:04.736Z,24.37
2018-12-25T22:52:30.571Z,25.55
2018-12-25T22:54:56.403Z,27.47
2018-12-25T22:57:22.325Z,25.63
2018-12-25T22:59:48.547Z,22.50
2018-12-25T23:02:15.937Z,25.48
2018-12-25T23:04:41.786Z,25.23
2018-12-25T23:07:07.607Z,26.80
2018-12-25T23:09:33.444Z,26.67
2018-12-25T23:11:59.552Z,31.80
2018-12-25T23:14:25.409Z,27.67
2018-12-25T23:16:51.250Z,26.20
2018-12-25T23:19:17.088Z,26.47
2018-12-25T23:21:42.883Z,21.53
2018-12-25T23:24:08.758Z,30.67
2018-12-25T23:26:34.891Z,23.30
2018-12-25T23:29:00.837Z,29.45
2018-12-25T23:31:26.740Z,26.82
2018-12-25T23:33:52.585Z,27.70
2018-12-25T23:36:18.668Z,33.00
2018-12-25T23:38:44.760Z,27.93
2018-12-25T23:41:10.580Z,23.77
2018-12-25T23:43:36.703Z,29.03
2018-12-25T23:46:02.591Z,22.85
2018-12-25T23:48:28.413Z,29.07
2018-12-25T23:50:54.550Z,24.27
2018-12-25T23:53:23.153Z,24.35
2018-12-25T23:55:52.949Z,26.42
2018-12-25T23:58:18.041Z,20.85
